createdAt,value
2018-08-19T00:00:37.711Z,1008.08
2018-08-19T00:01:37.739Z,1008.06
2018-08-19T00:02:37.754Z,1008.07
2018-08-19T00:03:37.773Z,1008.10
2018-08-19T00:04:37.788Z,1008.07
2018-08-19T00:05:37.810Z,1008.07
2018-08-19T00:06:37.828Z,1008.07
2018-08-19T00:07:37.882Z,1008.06
2018-08-19T00:08:37.875Z,1008.03
2018-08-19T00:09:37.898Z,1008.05
2018-08-19T00:10:37.909Z,1008.05
2018-08-19T00:11:37.924Z,1008.02
2018-08-19T00:12:37.948Z,1008.03
2018-08-19T00:13:37.964Z,1008.05
2018-08-19T00:14:37.982Z,1008.05
2018-08-19T00:15:38.008Z,1008.05
2018-08-19T00:16:38.022Z,1008.07
2018-08-19T00:17:38.041Z,1008.07
2018-08-19T00:18:38.062Z,1008.04
2018-08-19T00:19:38.086Z,1008.07
2018-08-19T00:20:38.100Z,1008.05
2018-08-19T00:21:38.144Z,1008.06
2018-08-19T00:22:38.139Z,1008.03
2018-08-19T00:23:38.157Z,1008.01
2018-08-19T00:24:38.182Z,1008.03
2018-08-19T00:25:38.198Z,1008.05
2018-08-19T00:26:38.219Z,1008.07
2018-08-19T00:27:38.245Z,1008.08
2018-08-19T00:28:38.255Z,1008.08
2018-08-19T00:29:38.277Z,1008.05
2018-08-19T00:30:38.294Z,1008.05
2018-08-19T00:31:38.312Z,1008.05
2018-08-19T00:32:38.334Z,1008.08
2018-08-19T00:33:38.353Z,1008.07
2018-08-19T00:34:38.397Z,1008.07
2018-08-19T00:35:38.399Z,1008.05
2018-08-19T00:36:38.412Z,1008.06
2018-08-19T00:37:38.430Z,1008.08
2018-08-19T00:38:38.454Z,1008.05
2018-08-19T00:39:38.493Z,1008.03
2018-08-19T00:40:38.490Z,1008.07
2018-08-19T00:41:38.511Z,1008.08
2018-08-19T00:42:38.535Z,1008.12
2018-08-19T00:43:38.552Z,1008.09
2018-08-19T00:44:38.568Z,1008.06
2018-08-19T00:45:38.585Z,1008.06
2018-08-19T00:46:38.606Z,1008.11
2018-08-19T00:47:38.628Z,1008.05
2018-08-19T00:48:38.644Z,1008.06
2018-08-19T00:49:38.665Z,1008.07
2018-08-19T00:50:38.683Z,1008.06
2018-08-19T00:51:38.703Z,1008.04
2018-08-19T00:52:38.721Z,1008.03
2018-08-19T00:53:38.745Z,1008.05
2018-08-19T00:54:38.760Z,1008.01
2018-08-19T00:55:38.779Z,1008.03
2018-08-19T00:56:38.803Z,1008.02
2018-08-19T00:57:38.819Z,1008.01
2018-08-19T00:58:38.838Z,1008.06
2018-08-19T00:59:38.863Z,1008.06
2018-08-19T01:00:38.874Z,1008.04
2018-08-19T01:01:38.893Z,1008.06
2018-08-19T01:02:38.915Z,1008.07
2018-08-19T01:03:38.939Z,1008.03
2018-08-19T01:04:38.951Z,1008.02
2018-08-19T01:05:38.973Z,1008.01
2018-08-19T01:06:38.998Z,1008.00
2018-08-19T01:07:39.008Z,1008.01
2018-08-19T01:08:39.030Z,1007.98
2018-08-19T01:09:39.049Z,1008.02
2018-08-19T01:10:39.070Z,1008.02
2018-08-19T01:11:39.093Z,1008.00
2018-08-19T01:12:39.108Z,1008.01
2018-08-19T01:13:39.125Z,1008.05
2018-08-19T01:14:39.145Z,1008.04
2018-08-19T01:15:39.164Z,1008.06
2018-08-19T01:16:39.185Z,1008.06
2018-08-19T01:17:39.202Z,1008.08
2018-08-19T01:18:39.224Z,1008.09
2018-08-19T01:19:39.242Z,1008.07
2018-08-19T01:20:39.263Z,1008.08
2018-08-19T01:21:39.282Z,1008.10
2018-08-19T01:22:39.305Z,1008.09
2018-08-19T01:23:39.319Z,1008.08
2018-08-19T01:24:39.337Z,1008.11
2018-08-19T01:25:39.355Z,1008.11
2018-08-19T01:26:39.375Z,1008.06
2018-08-19T01:27:39.394Z,1008.06
2018-08-19T01:28:39.415Z,1008.07
2018-08-19T01:29:39.433Z,1008.04
2018-08-19T01:30:39.453Z,1008.05
2018-08-19T01:31:39.471Z,1008.07
2018-08-19T01:32:39.492Z,1008.06
2018-08-19T01:33:39.510Z,1008.07
2018-08-19T01:34:39.528Z,1008.10
2018-08-19T01:35:39.547Z,1008.09
2018-08-19T01:36:39.567Z,1008.10
2018-08-19T01:37:39.588Z,1008.06
2018-08-19T01:38:39.624Z,1008.08
2018-08-19T01:39:39.628Z,1008.07
2018-08-19T01:40:39.649Z,1008.07
2018-08-19T01:41:39.668Z,1008.09
2018-08-19T01:42:39.681Z,1008.07
2018-08-19T01:43:39.702Z,1008.09
2018-08-19T01:44:39.722Z,1008.08
2018-08-19T01:45:39.742Z,1008.12
2018-08-19T01:46:39.763Z,1008.13
2018-08-19T01:47:39.781Z,1008.09
2018-08-19T01:48:39.804Z,1008.07
2018-08-19T01:49:39.823Z,1008.07
2018-08-19T01:50:39.840Z,1008.06
2018-08-19T01:51:39.857Z,1008.07
2018-08-19T01:52:39.876Z,1008.06
2018-08-19T01:53:39.896Z,1008.06
2018-08-19T01:54:39.929Z,1008.05
2018-08-19T01:55:39.937Z,1008.01
2018-08-19T01:56:39.952Z,1008.03
2018-08-19T01:57:39.978Z,1008.06
2018-08-19T01:58:39.993Z,1008.05
2018-08-19T01:59:40.012Z,1008.06
2018-08-19T02:00:40.077Z,1008.10
2018-08-19T02:01:40.050Z,1008.05
2018-08-19T02:02:40.070Z,1008.05
2018-08-19T02:03:40.090Z,1008.06
2018-08-19T02:04:40.118Z,1008.05
2018-08-19T02:05:40.127Z,1008.03
2018-08-19T02:06:40.149Z,1008.02
2018-08-19T02:07:40.165Z,1007.99
2018-08-19T02:08:40.210Z,1007.98
2018-08-19T02:09:40.216Z,1007.99
2018-08-19T02:10:40.225Z,1007.99
2018-08-19T02:11:40.242Z,1008.03
2018-08-19T02:12:40.261Z,1008.02
2018-08-19T02:13:40.286Z,1008.00
2018-08-19T02:14:40.302Z,1007.98
2018-08-19T02:15:40.321Z,1007.99
2018-08-19T02:16:40.337Z,1007.96
2018-08-19T02:17:40.357Z,1007.94
2018-08-19T02:18:40.374Z,1007.95
2018-08-19T02:19:40.400Z,1007.97
2018-08-19T02:20:40.475Z,1007.99
2018-08-19T02:21:40.435Z,1008.00
2018-08-19T02:22:40.453Z,1007.95
2018-08-19T02:23:40.472Z,1007.95
2018-08-19T02:24:40.491Z,1007.92
2018-08-19T02:25:40.509Z,1007.95
2018-08-19T02:26:40.529Z,1007.93
2018-08-19T02:27:40.549Z,1007.90
2018-08-19T02:28:40.566Z,1007.91
2018-08-19T02:29:40.585Z,1007.90
2018-08-19T02:30:40.604Z,1007.90
2018-08-19T02:31:40.628Z,1007.90
2018-08-19T02:32:40.647Z,1007.89
2018-08-19T02:33:40.664Z,1007.87
2018-08-19T02:34:40.685Z,1007.92
2018-08-19T02:35:40.699Z,1007.92
2018-08-19T02:36:40.720Z,1007.93
2018-08-19T02:37:40.740Z,1007.91
2018-08-19T02:38:40.762Z,1007.95
2018-08-19T02:39:40.783Z,1007.94
2018-08-19T02:40:40.839Z,1007.91
2018-08-19T02:41:40.816Z,1007.93
2018-08-19T02:42:40.832Z,1007.90
2018-08-19T02:43:40.851Z,1007.93
2018-08-19T02:44:40.872Z,1007.93
2018-08-19T02:45:40.891Z,1007.91
2018-08-19T02:46:40.912Z,1007.93
2018-08-19T02:47:40.936Z,1007.91
2018-08-19T02:48:40.949Z,1007.93
2018-08-19T02:49:40.966Z,1007.90
2018-08-19T02:50:40.991Z,1007.90
2018-08-19T02:51:41.007Z,1007.87
2018-08-19T02:52:41.023Z,1007.85
2018-08-19T02:53:41.059Z,1007.88
2018-08-19T02:54:41.068Z,1007.86
2018-08-19T02:55:41.082Z,1007.83
2018-08-19T02:56:41.100Z,1007.79
2018-08-19T02:57:41.119Z,1007.79
2018-08-19T02:58:41.137Z,1007.80
2018-08-19T02:59:41.157Z,1007.87
2018-08-19T03:00:41.174Z,1007.87
2018-08-19T03:01:41.194Z,1007.86
2018-08-19T03:02:41.225Z,1007.88
2018-08-19T03:03:41.232Z,1007.88
2018-08-19T03:04:41.249Z,1007.89
2018-08-19T03:05:41.270Z,1007.89
2018-08-19T03:06:41.289Z,1007.91
2018-08-19T03:07:41.308Z,1007.90
2018-08-19T03:08:41.324Z,1007.91
2018-08-19T03:09:41.346Z,1007.92
2018-08-19T03:10:41.363Z,1007.93
2018-08-19T03:11:41.385Z,1007.92
2018-08-19T03:12:41.404Z,1007.95
2018-08-19T03:13:41.423Z,1007.93
2018-08-19T03:14:41.438Z,1007.96
2018-08-19T03:15:41.459Z,1007.97
2018-08-19T03:16:41.478Z,1007.98
2018-08-19T03:17:41.497Z,1007.97
2018-08-19T03:18:41.525Z,1007.98
2018-08-19T03:19:41.531Z,1007.95
2018-08-19T03:20:41.558Z,1007.96
2018-08-19T03:21:41.576Z,1007.92
2018-08-19T03:22:41.591Z,1007.96
2018-08-19T03:23:41.612Z,1007.99
2018-08-19T03:24:41.627Z,1007.97
2018-08-19T03:25:41.649Z,1008.00
2018-08-19T03:26:41.665Z,1008.01
2018-08-19T03:27:41.685Z,1008.03
2018-08-19T03:28:41.711Z,1008.00
2018-08-19T03:29:41.725Z,1007.97
2018-08-19T03:30:41.753Z,1007.99
2018-08-19T03:31:41.762Z,1007.92
2018-08-19T03:32:41.783Z,1007.94
2018-08-19T03:33:41.800Z,1007.93
2018-08-19T03:34:41.817Z,1007.95
2018-08-19T03:35:41.846Z,1007.90
2018-08-19T03:36:41.856Z,1007.92
2018-08-19T03:37:41.873Z,1007.95
2018-08-19T03:38:41.896Z,1007.94
2018-08-19T03:39:41.916Z,1007.90
2018-08-19T03:40:41.929Z,1007.88
2018-08-19T03:41:41.950Z,1007.89
2018-08-19T03:42:41.968Z,1007.88
2018-08-19T03:43:42.000Z,1007.90
2018-08-19T03:44:42.008Z,1007.86
2018-08-19T03:45:42.024Z,1007.90
2018-08-19T03:46:42.042Z,1007.90
2018-08-19T03:47:42.061Z,1007.93
2018-08-19T03:48:42.081Z,1007.91
2018-08-19T03:49:42.105Z,1007.93
2018-08-19T03:50:42.118Z,1007.92
2018-08-19T03:51:42.141Z,1007.92
2018-08-19T03:52:42.161Z,1007.91
2018-08-19T03:53:42.177Z,1007.93
2018-08-19T03:54:42.192Z,1007.90
2018-08-19T03:55:42.210Z,1007.93
2018-08-19T03:56:42.230Z,1007.93
2018-08-19T03:57:42.249Z,1007.95
2018-08-19T03:58:42.270Z,1007.95
2018-08-19T03:59:42.284Z,1007.98
2018-08-19T04:00:42.303Z,1007.98
2018-08-19T04:01:42.323Z,1007.99
2018-08-19T04:02:42.344Z,1007.99
2018-08-19T04:03:42.360Z,1007.98
2018-08-19T04:04:42.378Z,1007.97
2018-08-19T04:05:42.403Z,1007.98
2018-08-19T04:06:42.417Z,1007.94
2018-08-19T04:07:42.436Z,1007.93
2018-08-19T04:08:42.454Z,1007.95
2018-08-19T04:09:42.482Z,1007.94
2018-08-19T04:10:42.650Z,1007.92
2018-08-19T04:11:42.527Z,1007.92
2018-08-19T04:12:42.532Z,1007.92
2018-08-19T04:13:42.546Z,1007.92
2018-08-19T04:14:42.572Z,1007.92
2018-08-19T04:15:42.583Z,1007.92
2018-08-19T04:16:42.606Z,1007.89
2018-08-19T04:17:42.628Z,1007.91
2018-08-19T04:18:42.642Z,1007.89
2018-08-19T04:19:42.705Z,1007.91
2018-08-19T04:20:42.679Z,1007.88
2018-08-19T04:21:42.704Z,1007.92
2018-08-19T04:22:42.716Z,1007.91
2018-08-19T04:23:42.740Z,1007.87
2018-08-19T04:24:42.754Z,1007.89
2018-08-19T04:25:42.774Z,1007.88
2018-08-19T04:26:42.791Z,1007.90
2018-08-19T04:27:42.813Z,1007.90
2018-08-19T04:28:42.834Z,1007.90
2018-08-19T04:29:42.850Z,1007.92
2018-08-19T04:30:42.870Z,1007.96
2018-08-19T04:31:42.886Z,1007.93
2018-08-19T04:32:42.905Z,1007.93
2018-08-19T04:33:42.922Z,1007.94
2018-08-19T04:34:42.943Z,1007.94
2018-08-19T04:35:42.958Z,1007.93
2018-08-19T04:36:42.979Z,1007.91
2018-08-19T04:37:43.001Z,1007.95
2018-08-19T04:38:43.016Z,1007.92
2018-08-19T04:39:43.035Z,1007.90
2018-08-19T04:40:43.054Z,1007.90
2018-08-19T04:41:43.081Z,1007.90
2018-08-19T04:42:43.091Z,1007.91
2018-08-19T04:43:43.113Z,1007.92
2018-08-19T04:44:43.129Z,1007.93
2018-08-19T04:45:43.151Z,1007.91
2018-08-19T04:46:43.177Z,1007.89
2018-08-19T04:47:43.184Z,1007.85
2018-08-19T04:48:43.206Z,1007.84
2018-08-19T04:49:43.223Z,1007.84
2018-08-19T04:50:43.247Z,1007.82
2018-08-19T04:51:43.266Z,1007.84
2018-08-19T04:52:43.288Z,1007.85
2018-08-19T04:53:43.299Z,1007.86
2018-08-19T04:54:43.319Z,1007.87
2018-08-19T04:55:43.339Z,1007.85
2018-08-19T04:56:43.361Z,1007.89
2018-08-19T04:57:43.376Z,1007.86
2018-08-19T04:58:43.395Z,1007.85
2018-08-19T04:59:43.416Z,1007.93
2018-08-19T05:00:43.434Z,1008.03
2018-08-19T05:01:43.454Z,1008.09
2018-08-19T05:02:43.472Z,1008.17
2018-08-19T05:03:43.491Z,1008.21
2018-08-19T05:04:43.511Z,1008.23
2018-08-19T05:05:43.530Z,1008.25
2018-08-19T05:06:43.549Z,1008.30
2018-08-19T05:07:43.574Z,1008.32
2018-08-19T05:08:43.601Z,1008.35
2018-08-19T05:09:43.610Z,1008.37
2018-08-19T05:10:43.629Z,1008.41
2018-08-19T05:11:43.650Z,1008.47
2018-08-19T05:12:43.678Z,1008.51
2018-08-19T05:13:43.745Z,1008.53
2018-08-19T05:14:43.711Z,1008.54
2018-08-19T05:15:43.735Z,1008.56
2018-08-19T05:16:43.756Z,1008.52
2018-08-19T05:17:43.778Z,1008.58
2018-08-19T05:18:43.799Z,1008.62
2018-08-19T05:19:43.819Z,1008.67
2018-08-19T05:20:43.845Z,1008.66
2018-08-19T05:21:43.867Z,1008.69
2018-08-19T05:22:43.886Z,1008.74
2018-08-19T05:23:43.908Z,1008.75
2018-08-19T05:24:43.930Z,1008.78
2018-08-19T05:25:43.955Z,1008.80
2018-08-19T05:26:43.979Z,1008.82
2018-08-19T05:27:44.001Z,1008.83
2018-08-19T05:28:44.021Z,1008.84
2018-08-19T05:29:44.047Z,1008.87
2018-08-19T05:30:44.216Z,1008.89
2018-08-19T05:31:44.090Z,1008.94
2018-08-19T05:32:44.111Z,1008.96
2018-08-19T05:33:44.138Z,1008.95
2018-08-19T05:34:44.161Z,1008.95
2018-08-19T05:35:44.179Z,1008.92
2018-08-19T05:36:44.208Z,1008.97
2018-08-19T05:37:44.229Z,1008.98
2018-08-19T05:38:44.267Z,1008.99
2018-08-19T05:39:44.275Z,1009.02
2018-08-19T05:40:44.298Z,1009.03
2018-08-19T05:41:44.324Z,1009.00
2018-08-19T05:42:44.343Z,1008.99
2018-08-19T05:43:44.370Z,1009.03
2018-08-19T05:44:44.398Z,1009.07
2018-08-19T05:45:44.421Z,1009.06
2018-08-19T05:46:44.441Z,1009.15
2018-08-19T05:47:44.467Z,1009.13
2018-08-19T05:48:44.493Z,1009.20
2018-08-19T05:49:44.514Z,1009.22
2018-08-19T05:50:44.541Z,1009.25
2018-08-19T05:51:44.578Z,1009.27
2018-08-19T05:52:44.590Z,1009.31
2018-08-19T05:53:44.614Z,1009.32
2018-08-19T05:54:44.646Z,1009.43
2018-08-19T05:55:44.779Z,1009.49
2018-08-19T05:56:44.693Z,1009.57
2018-08-19T05:57:44.712Z,1009.67
2018-08-19T05:58:44.742Z,1009.73
2018-08-19T05:59:44.764Z,1009.76
2018-08-19T06:00:44.790Z,1009.82
2018-08-19T06:01:44.816Z,1009.85
2018-08-19T06:02:44.836Z,1009.83
2018-08-19T06:03:44.916Z,1009.92
2018-08-19T06:04:44.898Z,1009.97
2018-08-19T06:05:44.918Z,1009.99
2018-08-19T06:06:44.941Z,1009.96
2018-08-19T06:07:44.973Z,1010.09
2018-08-19T06:08:44.990Z,1010.22
2018-08-19T06:09:45.014Z,1010.21
2018-08-19T06:10:45.043Z,1010.20
2018-08-19T06:11:45.067Z,1010.37
2018-08-19T06:12:45.094Z,1010.59
2018-08-19T06:13:45.123Z,1010.69
2018-08-19T06:14:45.154Z,1010.80
2018-08-19T06:15:45.191Z,1010.96
2018-08-19T06:16:45.198Z,1011.14
2018-08-19T06:17:45.231Z,1011.11
2018-08-19T06:18:45.266Z,1011.15
2018-08-19T06:19:45.276Z,1011.28
2018-08-19T06:20:45.306Z,1011.35
2018-08-19T06:21:45.327Z,1011.48
2018-08-19T06:22:45.351Z,1011.46
2018-08-19T06:23:45.401Z,1011.54
2018-08-19T06:24:45.468Z,1011.84
2018-08-19T06:25:45.436Z,1011.96
2018-08-19T06:26:45.469Z,1011.91
2018-08-19T06:27:45.496Z,1012.09
2018-08-19T06:28:45.516Z,1012.49
2018-08-19T06:29:45.539Z,1012.38
2018-08-19T06:30:45.566Z,1012.22
2018-08-19T06:31:45.592Z,1012.50
2018-08-19T06:32:45.625Z,1012.63
2018-08-19T06:33:45.644Z,1012.76
2018-08-19T06:34:45.702Z,1013.05
2018-08-19T06:35:45.700Z,1013.08
2018-08-19T06:36:45.730Z,1013.05
2018-08-19T06:37:45.759Z,1013.31
2018-08-19T06:38:45.785Z,1013.53
2018-08-19T06:39:45.832Z,1013.88
2018-08-19T06:40:45.842Z,1013.94
2018-08-19T06:41:45.869Z,1013.48
2018-08-19T06:42:45.923Z,1013.40
2018-08-19T06:43:45.915Z,1013.84
2018-08-19T06:44:45.946Z,1014.28
2018-08-19T06:45:45.972Z,1014.45
2018-08-19T06:46:46.001Z,1014.18
2018-08-19T06:47:46.031Z,1014.30
2018-08-19T06:48:46.057Z,1014.32
2018-08-19T06:49:46.082Z,1014.50
2018-08-19T06:50:46.111Z,1014.75
2018-08-19T06:51:46.135Z,1014.95
2018-08-19T06:52:46.167Z,1014.86
2018-08-19T06:53:46.198Z,1015.43
2018-08-19T06:54:46.224Z,1015.98
2018-08-19T06:55:46.249Z,1015.92
2018-08-19T06:56:46.279Z,1015.86
2018-08-19T06:57:46.310Z,1016.09
2018-08-19T06:58:46.333Z,1016.52
2018-08-19T06:59:46.393Z,1017.53
2018-08-19T07:00:46.389Z,1017.98
2018-08-19T07:01:46.423Z,1017.60
2018-08-19T07:02:46.444Z,1018.50
2018-08-19T07:03:46.547Z,1018.97
2018-08-19T07:04:46.502Z,1019.06
2018-08-19T07:05:46.533Z,1019.07
2018-08-19T07:06:46.559Z,1019.19
2018-08-19T07:07:46.592Z,1020.21
2018-08-19T07:08:46.618Z,1021.42
2018-08-19T07:09:46.646Z,1022.32
2018-08-19T07:10:46.673Z,1022.59
2018-08-19T07:11:46.704Z,1022.33
2018-08-19T07:12:46.730Z,1023.34
2018-08-19T07:13:46.770Z,1022.88
2018-08-19T07:14:46.791Z,1022.72
2018-08-19T07:15:46.819Z,1022.09
2018-08-19T07:16:46.850Z,1022.68
2018-08-19T07:17:46.875Z,1023.87
2018-08-19T07:18:46.935Z,1024.76
2018-08-19T07:19:46.945Z,1025.29
2018-08-19T07:20:46.964Z,1026.57
2018-08-19T07:21:46.992Z,1027.16
2018-08-19T07:22:47.018Z,1026.08
2018-08-19T07:23:47.123Z,1026.16
2018-08-19T07:24:47.080Z,1027.47
2018-08-19T07:25:47.109Z,1027.63
2018-08-19T07:26:47.138Z,1027.81
2018-08-19T07:27:47.165Z,1028.47
2018-08-19T07:28:47.194Z,1028.77
2018-08-19T07:29:47.268Z,1029.20
2018-08-19T07:30:47.254Z,1030.79
2018-08-19T07:31:47.287Z,1031.65
2018-08-19T07:32:47.317Z,1028.58
2018-08-19T07:33:47.344Z,1028.14
2018-08-19T07:34:47.373Z,1030.41
2018-08-19T07:35:47.401Z,1030.17
2018-08-19T07:36:47.443Z,1029.60
2018-08-19T07:37:47.462Z,1030.83
2018-08-19T07:38:47.488Z,1032.29
2018-08-19T07:39:47.514Z,1030.78
2018-08-19T07:40:47.546Z,1028.88
2018-08-19T07:41:47.577Z,1029.33
2018-08-19T07:42:47.606Z,1029.78
2018-08-19T07:43:47.686Z,1029.80
2018-08-19T07:44:47.669Z,1031.37
2018-08-19T07:45:47.697Z,1031.83
2018-08-19T07:46:47.726Z,1030.63
2018-08-19T07:47:47.762Z,1031.05
2018-08-19T07:48:47.800Z,1032.20
2018-08-19T07:49:47.818Z,1031.93
2018-08-19T07:50:47.845Z,1030.35
2018-08-19T07:51:47.877Z,1033.99
2018-08-19T07:52:47.901Z,1033.56
2018-08-19T07:53:47.932Z,1033.02
2018-08-19T07:54:47.959Z,1033.80
2018-08-19T07:55:47.997Z,1035.15
2018-08-19T07:56:49.067Z,1033.35
2018-08-19T07:57:48.053Z,1030.17
2018-08-19T07:58:48.085Z,1030.89
2018-08-19T07:59:48.111Z,1032.05
2018-08-19T08:00:48.147Z,1031.49
2018-08-19T08:01:48.169Z,1031.09
2018-08-19T08:02:48.197Z,1032.44
2018-08-19T08:03:48.226Z,1032.54
2018-08-19T08:04:48.262Z,1031.49
2018-08-19T08:05:48.297Z,1029.92
2018-08-19T08:06:48.313Z,1031.91
2018-08-19T08:07:48.357Z,1031.90
2018-08-19T08:08:48.376Z,1031.22
2018-08-19T08:09:48.403Z,1032.08
2018-08-19T08:10:48.482Z,1031.03
2018-08-19T08:11:48.464Z,1031.46
2018-08-19T08:12:48.489Z,1031.80
2018-08-19T08:13:48.555Z,1030.90
2018-08-19T08:14:48.554Z,1031.91
2018-08-19T08:15:48.583Z,1031.11
2018-08-19T08:16:48.610Z,1030.91
2018-08-19T08:17:48.639Z,1031.99
2018-08-19T08:18:48.669Z,1030.28
2018-08-19T08:19:48.699Z,1028.27
2018-08-19T08:20:48.728Z,1027.60
2018-08-19T08:21:48.758Z,1027.08
2018-08-19T08:22:48.788Z,1027.30
2018-08-19T08:23:48.820Z,1028.08
2018-08-19T08:24:48.846Z,1027.91
2018-08-19T08:25:48.878Z,1027.92
2018-08-19T08:26:48.908Z,1026.20
2018-08-19T08:27:48.936Z,1026.28
2018-08-19T08:28:48.972Z,1027.63
2018-08-19T08:29:48.999Z,1027.08
2018-08-19T08:30:49.021Z,1028.04
2018-08-19T08:31:49.073Z,1028.53
2018-08-19T08:32:49.079Z,1026.05
2018-08-19T08:33:49.115Z,1022.16
2018-08-19T08:34:49.134Z,1013.03
2018-08-19T08:35:49.166Z,1008.43
2018-08-19T08:36:49.198Z,1008.35
2018-08-19T08:37:49.221Z,1008.28
2018-08-19T08:38:49.250Z,1008.27
2018-08-19T08:39:49.274Z,1008.23
2018-08-19T08:40:49.302Z,1008.22
2018-08-19T08:41:49.329Z,1008.17
2018-08-19T08:42:49.355Z,1008.15
2018-08-19T08:43:49.383Z,1008.08
2018-08-19T08:44:49.462Z,1008.10
2018-08-19T08:45:49.439Z,1008.08
2018-08-19T08:46:49.463Z,1008.04
2018-08-19T08:47:49.622Z,1008.08
2018-08-19T08:48:49.517Z,1008.04
2018-08-19T08:49:49.546Z,1008.01
2018-08-19T08:50:49.567Z,1007.99
2018-08-19T08:51:49.597Z,1007.96
2018-08-19T08:52:49.619Z,1007.97
2018-08-19T08:53:49.643Z,1007.97
2018-08-19T08:54:49.665Z,1007.98
2018-08-19T08:55:49.692Z,1007.97
2018-08-19T08:56:49.719Z,1007.93
2018-08-19T08:57:49.744Z,1007.91
2018-08-19T08:58:49.775Z,1007.91
2018-08-19T08:59:49.796Z,1007.87
2018-08-19T09:00:49.830Z,1007.89
2018-08-19T09:01:49.847Z,1007.89
2018-08-19T09:02:49.893Z,1007.86
2018-08-19T09:03:49.901Z,1007.87
2018-08-19T09:04:49.923Z,1007.82
2018-08-19T09:05:49.955Z,1007.83
2018-08-19T09:06:49.977Z,1007.81
2018-08-19T09:07:49.994Z,1007.79
2018-08-19T09:08:50.023Z,1007.72
2018-08-19T09:09:50.045Z,1007.72
2018-08-19T09:10:50.078Z,1007.69
2018-08-19T09:11:50.096Z,1007.70
2018-08-19T09:12:50.122Z,1007.67
2018-08-19T09:13:50.191Z,1007.65
2018-08-19T09:14:50.169Z,1007.62
2018-08-19T09:15:50.195Z,1007.65
2018-08-19T09:16:50.216Z,1007.61
2018-08-19T09:17:50.248Z,1007.65
2018-08-19T09:18:50.265Z,1007.64
2018-08-19T09:19:50.296Z,1007.58
2018-08-19T09:20:50.316Z,1007.57
2018-08-19T09:21:50.341Z,1007.51
2018-08-19T09:22:50.386Z,1007.51
2018-08-19T09:23:50.394Z,1007.50
2018-08-19T09:24:50.429Z,1007.51
2018-08-19T09:25:50.442Z,1007.53
2018-08-19T09:26:50.465Z,1007.50
2018-08-19T09:27:50.499Z,1007.46
2018-08-19T09:28:50.515Z,1007.46
2018-08-19T09:29:50.540Z,1007.44
2018-08-19T09:30:50.573Z,1007.44
2018-08-19T09:31:50.593Z,1007.43
2018-08-19T09:32:50.631Z,1007.39
2018-08-19T09:33:50.658Z,1007.37
2018-08-19T09:34:50.659Z,1007.32
2018-08-19T09:35:50.683Z,1007.29
2018-08-19T09:36:50.715Z,1007.31
2018-08-19T09:37:50.735Z,1007.31
2018-08-19T09:38:50.760Z,1007.31
2018-08-19T09:39:50.784Z,1007.29
2018-08-19T09:40:50.896Z,1007.26
2018-08-19T09:41:50.838Z,1007.29
2018-08-19T09:42:50.860Z,1007.26
2018-08-19T09:43:50.880Z,1007.25
2018-08-19T09:44:50.907Z,1007.24
2018-08-19T09:45:50.932Z,1007.23
2018-08-19T09:46:50.961Z,1007.20
2018-08-19T09:47:51.084Z,1007.20
2018-08-19T09:48:51.011Z,1007.21
2018-08-19T09:49:51.030Z,1007.17
2018-08-19T09:50:51.061Z,1007.11
2018-08-19T09:51:51.126Z,1007.12
2018-08-19T09:52:51.104Z,1007.05
2018-08-19T09:53:51.134Z,1007.04
2018-08-19T09:54:51.156Z,1006.99
2018-08-19T09:55:51.179Z,1006.98
2018-08-19T09:56:51.203Z,1007.00
2018-08-19T09:57:51.229Z,1007.00
2018-08-19T09:58:51.253Z,1006.98
2018-08-19T09:59:51.283Z,1006.95
2018-08-19T10:00:51.324Z,1006.94
2018-08-19T10:01:51.330Z,1006.95
2018-08-19T10:02:51.356Z,1006.94
2018-08-19T10:03:51.379Z,1006.91
2018-08-19T10:04:51.400Z,1006.88
2018-08-19T10:05:51.438Z,1006.83
2018-08-19T10:06:51.450Z,1006.85
2018-08-19T10:07:51.528Z,1006.85
2018-08-19T10:08:51.503Z,1006.88
2018-08-19T10:09:51.527Z,1006.91
2018-08-19T10:10:51.551Z,1006.87
2018-08-19T10:11:51.580Z,1006.86
2018-08-19T10:12:51.605Z,1006.83
2018-08-19T10:13:51.625Z,1006.81
2018-08-19T10:14:51.649Z,1006.84
2018-08-19T10:15:51.672Z,1006.86
2018-08-19T10:16:51.702Z,1006.83
2018-08-19T10:17:51.769Z,1006.79
2018-08-19T10:18:51.751Z,1006.74
2018-08-19T10:19:51.777Z,1006.69
2018-08-19T10:20:51.801Z,1006.69
2018-08-19T10:21:51.828Z,1006.69
2018-08-19T10:22:51.850Z,1006.72
2018-08-19T10:23:51.873Z,1006.76
2018-08-19T10:24:51.899Z,1006.77
2018-08-19T10:25:51.925Z,1006.69
2018-08-19T10:26:51.951Z,1006.68
2018-08-19T10:27:51.975Z,1006.63
2018-08-19T10:28:52.001Z,1006.64
2018-08-19T10:29:52.023Z,1006.60
2018-08-19T10:30:52.048Z,1006.54
2018-08-19T10:31:52.072Z,1006.51
2018-08-19T10:32:52.099Z,1006.51
2018-08-19T10:33:52.127Z,1006.51
2018-08-19T10:34:52.147Z,1006.47
2018-08-19T10:35:52.172Z,1006.50
2018-08-19T10:36:52.197Z,1006.45
2018-08-19T10:37:52.223Z,1006.43
2018-08-19T10:38:52.248Z,1006.44
2018-08-19T10:39:52.273Z,1006.45
2018-08-19T10:40:52.298Z,1006.39
2018-08-19T10:41:52.323Z,1006.42
2018-08-19T10:42:52.347Z,1006.44
2018-08-19T10:43:52.375Z,1006.41
2018-08-19T10:44:52.396Z,1006.43
2018-08-19T10:45:52.422Z,1006.35
2018-08-19T10:46:52.459Z,1006.36
2018-08-19T10:47:52.474Z,1006.36
2018-08-19T10:48:52.498Z,1006.35
2018-08-19T10:49:52.529Z,1006.36
2018-08-19T10:50:52.549Z,1006.38
2018-08-19T10:51:52.573Z,1006.39
2018-08-19T10:52:52.603Z,1006.33
2018-08-19T10:53:52.644Z,1006.35
2018-08-19T10:54:52.678Z,1006.38
2018-08-19T10:55:52.674Z,1006.31
2018-08-19T10:56:52.714Z,1006.29
2018-08-19T10:57:52.723Z,1006.29
2018-08-19T10:58:52.789Z,1006.23
2018-08-19T10:59:52.784Z,1006.24
2018-08-19T11:00:52.807Z,1006.22
2018-08-19T11:01:52.825Z,1006.20
2018-08-19T11:02:52.851Z,1006.16
2018-08-19T11:03:52.910Z,1006.16
2018-08-19T11:04:52.899Z,1006.17
2018-08-19T11:05:52.924Z,1006.10
2018-08-19T11:06:52.974Z,1006.12
2018-08-19T11:07:52.998Z,1006.11
2018-08-19T11:08:53.000Z,1006.07
2018-08-19T11:09:53.040Z,1006.03
2018-08-19T11:10:53.047Z,1006.03
2018-08-19T11:11:53.075Z,1006.02
2018-08-19T11:12:53.101Z,1006.00
2018-08-19T11:13:53.144Z,1005.97
2018-08-19T11:14:53.208Z,1005.93
2018-08-19T11:15:53.172Z,1005.94
2018-08-19T11:16:53.200Z,1005.94
2018-08-19T11:17:53.224Z,1005.90
2018-08-19T11:18:53.265Z,1005.89
2018-08-19T11:19:53.278Z,1005.82
2018-08-19T11:20:53.346Z,1005.89
2018-08-19T11:21:53.339Z,1005.90
2018-08-19T11:22:53.357Z,1005.93
2018-08-19T11:23:53.383Z,1005.89
2018-08-19T11:24:53.444Z,1005.89
2018-08-19T11:25:53.425Z,1005.85
2018-08-19T11:26:53.449Z,1005.89
2018-08-19T11:27:53.476Z,1005.87
2018-08-19T11:28:53.531Z,1005.84
2018-08-19T11:29:53.542Z,1005.86
2018-08-19T11:30:53.551Z,1005.85
2018-08-19T11:31:53.577Z,1005.82
2018-08-19T11:32:53.645Z,1005.78
2018-08-19T11:33:53.648Z,1005.74
2018-08-19T11:34:53.651Z,1005.77
2018-08-19T11:35:53.692Z,1005.69
2018-08-19T11:36:53.706Z,1005.68
2018-08-19T11:37:53.730Z,1005.66
2018-08-19T11:38:53.751Z,1005.64
2018-08-19T11:39:53.776Z,1005.65
2018-08-19T11:40:53.806Z,1005.66
2018-08-19T11:41:53.830Z,1005.67
2018-08-19T11:42:53.852Z,1005.65
2018-08-19T11:43:53.876Z,1005.61
2018-08-19T11:44:53.904Z,1005.57
2018-08-19T11:45:53.927Z,1005.56
2018-08-19T11:46:53.953Z,1005.53
2018-08-19T11:47:53.979Z,1005.52
2018-08-19T11:48:54.147Z,1005.51
2018-08-19T11:49:54.028Z,1005.49
2018-08-19T11:50:54.053Z,1005.44
2018-08-19T11:51:54.081Z,1005.44
2018-08-19T11:52:54.111Z,1005.42
2018-08-19T11:53:54.127Z,1005.44
2018-08-19T11:54:54.156Z,1005.44
2018-08-19T11:55:54.178Z,1005.41
2018-08-19T11:56:54.203Z,1005.39
2018-08-19T11:57:54.347Z,1005.38
2018-08-19T11:58:54.261Z,1005.34
2018-08-19T11:59:54.282Z,1005.34
2018-08-19T12:00:54.349Z,1005.33
2018-08-19T12:01:54.387Z,1005.32
2018-08-19T12:02:54.358Z,1005.33
2018-08-19T12:03:54.381Z,1005.35
2018-08-19T12:04:54.405Z,1005.34
2018-08-19T12:05:54.444Z,1005.34